createdAt,value
2018-08-25T00:04:13.778Z,18.20
2018-08-25T00:09:10.093Z,17.90
2018-08-25T00:14:05.262Z,18.00
2018-08-25T00:19:00.772Z,18.00
2018-08-25T00:23:55.535Z,18.00
2018-08-25T00:28:49.877Z,18.00
2018-08-25T00:33:43.976Z,18.00
2018-08-25T00:38:38.362Z,18.00
2018-08-25T00:43:32.987Z,18.00
2018-08-25T00:48:42.091Z,18.00
2018-08-25T00:53:37.245Z,18.00
2018-08-25T00:58:32.297Z,18.00
2018-08-25T01:03:26.604Z,17.90
2018-08-25T01:08:21.154Z,17.80
2018-08-25T01:13:15.486Z,17.90
2018-08-25T01:18:17.533Z,17.90
2018-08-25T01:23:19.387Z,17.90
2018-08-25T01:28:14.111Z,17.90
2018-08-25T01:33:08.514Z,17.90
2018-08-25T01:38:03.060Z,17.90
2018-08-25T01:42:57.488Z,17.80
2018-08-25T01:47:58.874Z,17.90
2018-08-25T01:53:01.017Z,17.90
2018-08-25T01:57:58.537Z,17.90
2018-08-25T02:02:53.387Z,17.90
2018-08-25T02:07:48.057Z,17.80
2018-08-25T02:12:42.329Z,17.80
2018-08-25T02:17:36.781Z,17.80
2018-08-25T02:22:31.044Z,17.80
2018-08-25T02:27:25.392Z,17.90
2018-08-25T02:32:19.809Z,17.80
2018-08-25T02:37:14.338Z,17.80
2018-08-25T02:42:08.894Z,17.80
2018-08-25T02:47:05.343Z,17.80
2018-08-25T02:51:59.600Z,17.80
2018-08-25T02:56:54.209Z,17.90
2018-08-25T03:01:49.383Z,17.90
2018-08-25T03:06:44.017Z,17.90
2018-08-25T03:11:38.390Z,18.00
2018-08-25T03:16:33.009Z,17.90
2018-08-25T03:21:27.428Z,17.90
2018-08-25T03:26:21.917Z,17.90
2018-08-25T03:31:16.289Z,17.80
2018-08-25T03:36:10.710Z,17.80
2018-08-25T03:41:05.011Z,17.70
2018-08-25T03:45:59.272Z,17.60
2018-08-25T03:50:53.864Z,17.50
2018-08-25T03:55:48.672Z,17.60
2018-08-25T04:00:43.163Z,17.50
2018-08-25T04:05:37.768Z,17.50
2018-08-25T04:10:32.373Z,17.50
2018-08-25T04:15:26.946Z,17.40
2018-08-25T04:20:21.307Z,17.20
2018-08-25T04:25:17.317Z,17.20
2018-08-25T04:30:11.666Z,17.20
2018-08-25T04:35:06.320Z,17.20
2018-08-25T04:40:00.602Z,17.40
2018-08-25T04:45:02.200Z,17.40
2018-08-25T04:50:03.807Z,17.50
2018-08-25T04:54:58.341Z,17.50
2018-08-25T04:59:52.708Z,17.50
2018-08-25T05:04:47.190Z,17.60
2018-08-25T05:09:56.669Z,17.60
2018-08-25T05:14:51.374Z,17.70
2018-08-25T05:19:45.868Z,17.60
2018-08-25T05:24:40.063Z,17.60
2018-08-25T05:29:34.408Z,17.60
2018-08-25T05:34:28.657Z,17.50
2018-08-25T05:39:23.460Z,17.40
2018-08-25T05:44:17.815Z,17.60
2018-08-25T05:49:11.875Z,17.80
2018-08-25T05:54:06.624Z,17.80
2018-08-25T05:59:08.897Z,17.80
2018-08-25T06:04:03.344Z,18.00
2018-08-25T06:08:57.583Z,18.20
2018-08-25T06:13:52.242Z,18.30
2018-08-25T06:18:47.179Z,18.30
2018-08-25T06:23:49.251Z,18.40
2018-08-25T06:28:51.300Z,18.50
2018-08-25T06:33:45.589Z,18.70
2018-08-25T06:38:39.771Z,18.60
2018-08-25T06:43:34.465Z,18.60
2018-08-25T06:48:28.744Z,18.70
2018-08-25T06:53:23.400Z,18.90
2018-08-25T06:58:17.779Z,19.00
2018-08-25T07:03:12.027Z,19.10
2018-08-25T07:08:06.766Z,18.90
2018-08-25T07:13:01.376Z,19.40
2018-08-25T07:17:55.800Z,20.10
2018-08-25T07:22:50.954Z,21.10
2018-08-25T07:27:45.345Z,21.00
2018-08-25T07:32:40.658Z,20.70
2018-08-25T07:37:34.898Z,20.80
2018-08-25T07:42:29.577Z,20.90
2018-08-25T07:47:23.843Z,20.90
2018-08-25T07:52:18.359Z,20.70
2018-08-25T07:57:12.812Z,20.70
2018-08-25T08:02:07.620Z,20.40
2018-08-25T08:07:03.876Z,20.40
2018-08-25T08:11:58.579Z,20.40
2018-08-25T08:16:52.752Z,20.40
2018-08-25T08:21:47.284Z,20.20
2018-08-25T08:26:57.034Z,20.20
2018-08-25T08:32:14.937Z,20.20
2018-08-25T08:37:09.671Z,20.20
2018-08-25T08:42:04.883Z,20.10
2018-08-25T08:46:59.926Z,20.30
2018-08-25T08:51:54.316Z,20.40
2018-08-25T08:56:49.032Z,20.40
2018-08-25T09:01:43.352Z,20.80
2018-08-25T09:06:38.860Z,21.00
2018-08-25T09:11:33.568Z,21.20
2018-08-25T09:16:28.330Z,21.20
2018-08-25T09:21:22.896Z,21.80
2018-08-25T09:26:17.666Z,22.40
2018-08-25T09:31:12.753Z,23.00
2018-08-25T09:36:16.219Z,24.50
2018-08-25T09:41:26.551Z,26.30
2018-08-25T09:46:36.815Z,27.20
2018-08-25T09:51:31.653Z,27.60
2018-08-25T09:56:25.986Z,28.20
2018-08-25T10:01:25.645Z,28.80
2018-08-25T10:06:20.090Z,31.30
2018-08-25T10:11:14.689Z,34.90
2018-08-25T10:16:09.767Z,33.50
2018-08-25T10:21:06.033Z,33.40
2018-08-25T10:26:01.038Z,33.30
2018-08-25T10:30:55.502Z,33.30
2018-08-25T10:35:50.029Z,32.90
2018-08-25T10:40:44.108Z,31.30
2018-08-25T10:45:38.545Z,30.90
2018-08-25T10:50:33.304Z,29.50
2018-08-25T10:55:27.882Z,28.90
2018-08-25T11:00:22.568Z,28.70
2018-08-25T11:05:17.037Z,28.40
2018-08-25T11:10:11.428Z,28.00
2018-08-25T11:15:05.910Z,27.30
2018-08-25T11:20:00.555Z,26.80
2018-08-25T11:24:55.539Z,26.20
2018-08-25T11:29:50.182Z,26.10
2018-08-25T11:34:45.230Z,26.10
2018-08-25T11:39:39.568Z,26.00
2018-08-25T11:44:34.363Z,25.50
2018-08-25T11:49:28.793Z,25.40
2018-08-25T11:54:23.484Z,25.30
2018-08-25T11:59:18.381Z,25.30
2018-08-25T12:04:13.153Z,25.20
2018-08-25T12:09:10.556Z,25.10
2018-08-25T12:14:06.523Z,24.80
2018-08-25T12:19:01.118Z,24.60
2018-08-25T12:23:55.537Z,24.10
2018-08-25T12:28:49.755Z,23.60
2018-08-25T12:33:44.720Z,23.40
2018-08-25T12:38:39.601Z,23.30
2018-08-25T12:43:34.019Z,23.40
2018-08-25T12:48:28.320Z,23.00
2018-08-25T12:53:22.958Z,22.70
2018-08-25T12:58:17.384Z,22.30
2018-08-25T13:03:12.492Z,22.30
2018-08-25T13:08:07.496Z,22.50
2018-08-25T13:13:02.250Z,22.10
2018-08-25T13:17:56.598Z,21.90
2018-08-25T13:22:51.291Z,22.00
2018-08-25T13:27:45.636Z,22.00
2018-08-25T13:32:39.916Z,21.90
2018-08-25T13:37:34.678Z,22.00
2018-08-25T13:42:29.741Z,21.80
2018-08-25T13:47:24.100Z,21.60
2018-08-25T13:52:18.714Z,21.60
2018-08-25T13:57:13.033Z,21.60
2018-08-25T14:02:15.252Z,21.30
2018-08-25T14:07:32.097Z,21.10
2018-08-25T14:12:29.108Z,20.70
2018-08-25T14:17:23.568Z,20.50
2018-08-25T14:22:18.282Z,20.60
2018-08-25T14:27:12.720Z,20.40
2018-08-25T14:32:07.133Z,20.10
2018-08-25T14:37:01.621Z,19.90
2018-08-25T14:41:56.294Z,20.20
2018-08-25T14:46:50.544Z,20.10
2018-08-25T14:51:45.121Z,20.00
2018-08-25T14:56:40.062Z,20.00
2018-08-25T15:01:34.844Z,20.20
2018-08-25T15:06:29.537Z,20.20
2018-08-25T15:11:24.933Z,20.20
2018-08-25T15:16:19.496Z,20.60
2018-08-25T15:21:14.186Z,20.90
2018-08-25T15:26:08.893Z,20.80
2018-08-25T15:31:03.919Z,20.80
2018-08-25T15:35:58.514Z,20.60
2018-08-25T15:40:53.276Z,20.60
2018-08-25T15:45:47.699Z,20.50
2018-08-25T15:50:42.232Z,20.50
2018-08-25T15:55:37.393Z,20.40
2018-08-25T16:00:31.992Z,20.40
2018-08-25T16:05:26.485Z,20.20
2018-08-25T16:10:21.196Z,20.10
2018-08-25T16:15:16.065Z,20.00
2018-08-25T16:20:10.995Z,19.90
2018-08-25T16:25:07.336Z,19.70
2018-08-25T16:30:01.764Z,19.70
2018-08-25T16:34:56.044Z,19.70
2018-08-25T16:39:50.729Z,19.50
2018-08-25T16:44:45.892Z,19.50
2018-08-25T16:49:40.481Z,19.40
2018-08-25T16:54:35.095Z,19.40
2018-08-25T16:59:29.723Z,19.30
2018-08-25T17:04:24.148Z,19.30
2018-08-25T17:09:26.763Z,19.20
2018-08-25T17:14:22.996Z,19.10
2018-08-25T17:19:18.846Z,19.10
2018-08-25T17:24:13.508Z,18.90
2018-08-25T17:29:08.145Z,18.80
2018-08-25T17:34:10.108Z,18.70
2018-08-25T17:39:09.882Z,18.60
2018-08-25T17:44:06.071Z,18.50
2018-08-25T17:49:00.628Z,18.50
2018-08-25T17:53:55.073Z,18.40
2018-08-25T17:58:49.969Z,18.40
2018-08-25T18:03:44.907Z,18.40
2018-08-25T18:08:39.408Z,18.40
2018-08-25T18:13:34.482Z,18.40
2018-08-25T18:18:29.302Z,18.30
2018-08-25T18:23:23.872Z,18.20
2018-08-25T18:28:18.521Z,18.20
2018-08-25T18:33:12.954Z,18.10
2018-08-25T18:38:07.585Z,18.00
2018-08-25T18:43:01.963Z,17.90
2018-08-25T18:47:56.261Z,17.80
2018-08-25T18:52:50.700Z,17.70
2018-08-25T18:57:45.608Z,17.60
2018-08-25T19:02:40.263Z,17.50
2018-08-25T19:07:34.864Z,17.50
2018-08-25T19:12:29.692Z,17.40
2018-08-25T19:17:24.353Z,17.40
2018-08-25T19:22:19.020Z,17.40
2018-08-25T19:27:31.443Z,17.30
2018-08-25T19:32:48.682Z,17.20
2018-08-25T19:37:43.606Z,17.10
2018-08-25T19:42:37.799Z,17.00
2018-08-25T19:47:32.621Z,16.80
2018-08-25T19:52:27.104Z,16.80
2018-08-25T19:57:21.963Z,16.70
2018-08-25T20:02:16.393Z,16.60
2018-08-25T20:07:11.025Z,16.50
2018-08-25T20:12:06.337Z,16.50
2018-08-25T20:17:01.210Z,16.40
2018-08-25T20:21:55.369Z,16.30
2018-08-25T20:26:49.957Z,16.30
2018-08-25T20:31:44.426Z,16.20
2018-08-25T20:36:39.754Z,16.10
2018-08-25T20:41:34.291Z,16.10
2018-08-25T20:46:28.960Z,16.00
2018-08-25T20:51:23.588Z,16.00
2018-08-25T20:56:17.890Z,15.90
2018-08-25T21:01:12.172Z,15.90
2018-08-25T21:06:07.182Z,15.90
2018-08-25T21:11:01.741Z,15.90
2018-08-25T21:15:56.597Z,15.80
2018-08-25T21:20:50.997Z,15.80
2018-08-25T21:25:45.635Z,15.80
2018-08-25T21:30:40.309Z,15.80
2018-08-25T21:35:34.690Z,15.70
2018-08-25T21:40:29.524Z,15.70
2018-08-25T21:45:31.182Z,15.70
2018-08-25T21:50:26.116Z,15.60
2018-08-25T21:55:20.478Z,15.60
2018-08-25T22:00:15.270Z,15.60
2018-08-25T22:05:09.620Z,15.50
2018-08-25T22:10:05.015Z,15.50
2018-08-25T22:14:59.659Z,15.50
2018-08-25T22:19:54.335Z,15.50
2018-08-25T22:24:48.693Z,15.50
2018-08-25T22:29:43.286Z,15.50
2018-08-25T22:34:37.600Z,15.50
2018-08-25T22:39:32.201Z,15.40
2018-08-25T22:44:27.328Z,15.30
2018-08-25T22:49:21.803Z,15.30
2018-08-25T22:54:16.286Z,15.30
2018-08-25T22:59:17.598Z,15.40
2018-08-25T23:04:19.262Z,15.40
2018-08-25T23:09:21.168Z,15.50
2018-08-25T23:14:15.895Z,15.40
2018-08-25T23:19:10.392Z,15.40
2018-08-25T23:24:05.306Z,15.30
2018-08-25T23:28:59.658Z,15.30
2018-08-25T23:34:01.091Z,15.40
2018-08-25T23:38:55.308Z,15.40
2018-08-25T23:43:49.748Z,15.40
2018-08-25T23:48:59.153Z,15.30
2018-08-25T23:53:53.740Z,15.30
2018-08-25T23:58:48.948Z,15.30
